Time;durP1;ratioP1;P1;durP2;ratioP2;P2;SDS_P1;SDS_P2;PMS_P1;PMS_P2;Temp;Humidity;BMP_temperature;BMP_pressure;BME280_temperature;BME280_humidity;BME280_pressure;Samples;Min_cycle;Max_cycle;Signal;HPM_P1;HPM_P2
2023/11/05 00:01:01;;;;;;;8.50;8.00;;;9.80;99.90;;;;;;4867787;29;20718;-79
2023/11/05 00:03:28;;;;;;;8.20;7.70;;;9.70;99.90;;;;;;4868097;29;20207;-79
2023/11/05 00:05:55;;;;;;;8.30;7.80;;;9.80;99.90;;;;;;4866185;29;20239;-79
2023/11/05 00:08:23;;;;;;;8.10;7.70;;;9.70;99.90;;;;;;4866721;29;20594;-79
2023/11/05 00:10:50;;;;;;;8.23;7.83;;;9.70;99.90;;;;;;4868658;29;20210;-79
2023/11/05 00:13:16;;;;;;;8.20;7.80;;;9.70;99.90;;;;;;4866784;29;20269;-79
2023/11/05 00:15:43;;;;;;;8.07;7.63;;;9.70;99.90;;;;;;4867387;29;20262;-79
2023/11/05 00:18:10;;;;;;;8.40;7.90;;;9.60;99.90;;;;;;4866349;29;20203;-79
2023/11/05 00:20:37;;;;;;;8.30;7.63;;;9.60;99.90;;;;;;4867109;29;20202;-79
2023/11/05 00:23:04;;;;;;;8.00;7.60;;;9.70;99.90;;;;;;4867319;29;20214;-79
2023/11/05 00:25:32;;;;;;;8.13;7.63;;;9.60;99.90;;;;;;4867819;29;20198;-78
2023/11/05 00:27:58;;;;;;;7.70;7.30;;;9.60;99.90;;;;;;4866289;29;20286;-79
2023/11/05 00:30:25;;;;;;;8.20;7.80;;;9.70;99.90;;;;;;4877912;29;20261;-77
2023/11/05 00:32:52;;;;;;;8.10;7.70;;;9.60;99.90;;;;;;4863207;29;20206;-79
2023/11/05 00:35:19;;;;;;;7.63;7.23;;;9.70;99.90;;;;;;4862517;29;20247;-79
2023/11/05 00:37:46;;;;;;;8.03;7.50;;;9.70;99.90;;;;;;4862836;29;20206;-79
2023/11/05 00:40:13;;;;;;;7.80;7.40;;;9.60;99.90;;;;;;4863128;29;20253;-79
2023/11/05 00:42:41;;;;;;;8.10;7.60;;;9.60;99.90;;;;;;4862965;29;20292;-79
2023/11/05 00:45:08;;;;;;;8.10;7.70;;;9.60;99.90;;;;;;4862715;29;20254;-78
2023/11/05 00:47:35;;;;;;;7.80;7.40;;;9.60;99.90;;;;;;4869508;29;20249;-79
2023/11/05 00:50:02;;;;;;;8.00;7.60;;;9.50;99.90;;;;;;4865002;29;20208;-79
2023/11/05 00:52:29;;;;;;;7.83;7.43;;;9.50;99.90;;;;;;4862681;29;20210;-79
2023/11/05 00:54:56;;;;;;;7.70;7.30;;;9.50;99.90;;;;;;4878900;29;20229;-78
2023/11/05 00:57:23;;;;;;;7.80;7.40;;;9.40;99.90;;;;;;4863655;29;20610;-79
2023/11/05 00:59:52;;;;;;;7.93;7.33;;;9.40;99.90;;;;;;4864161;29;20782;-79
2023/11/05 01:02:19;;;;;;;7.50;7.10;;;9.40;99.90;;;;;;4863534;29;20237;-79
2023/11/05 01:04:45;;;;;;;7.50;7.10;;;9.40;99.90;;;;;;4864154;29;20206;-78
2023/11/05 01:07:12;;;;;;;7.77;7.17;;;9.50;99.90;;;;;;4864423;29;20232;-78
2023/11/05 01:09:39;;;;;;;7.63;7.17;;;9.40;99.90;;;;;;4872109;29;20202;-78
2023/11/05 01:12:06;;;;;;;7.30;6.90;;;9.40;99.90;;;;;;4872295;29;20212;-78
2023/11/05 01:14:33;;;;;;;7.90;7.40;;;9.40;99.90;;;;;;4863828;29;20206;-78
2023/11/05 01:17:01;;;;;;;7.50;7.10;;;9.30;99.90;;;;;;4868434;29;20240;-79
2023/11/05 01:19:28;;;;;;;7.83;7.40;;;9.30;99.90;;;;;;4881167;29;20201;-79
2023/11/05 01:21:55;;;;;;;7.70;7.20;;;9.30;99.90;;;;;;4863920;29;20723;-79
2023/11/05 01:24:22;;;;;;;7.60;7.20;;;9.30;99.90;;;;;;4870696;29;20202;-78
2023/11/05 01:26:48;;;;;;;7.80;7.30;;;9.30;99.90;;;;;;4862709;29;20589;-79
2023/11/05 01:29:15;;;;;;;7.70;7.20;;;9.30;99.90;;;;;;4862856;29;20286;-79
2023/11/05 01:31:42;;;;;;;7.93;7.43;;;9.40;99.90;;;;;;4877794;29;20284;-79
2023/11/05 01:34:10;;;;;;;7.80;7.40;;;9.40;99.90;;;;;;4864053;29;20687;-78
2023/11/05 01:36:37;;;;;;;7.97;7.47;;;9.40;99.90;;;;;;4863916;29;20249;-79
2023/11/05 01:39:06;;;;;;;7.97;7.47;;;9.50;99.90;;;;;;4870481;29;20782;-79
2023/11/05 01:41:33;;;;;;;8.10;7.60;;;9.50;99.90;;;;;;4862460;29;20297;-79
2023/11/05 01:44:01;;;;;;;7.70;7.20;;;9.50;99.90;;;;;;4862864;29;20206;-78
2023/11/05 01:46:28;;;;;;;8.03;7.20;;;9.50;99.90;;;;;;4878072;29;20798;-79
2023/11/05 01:48:57;;;;;;;8.40;7.80;;;9.60;99.90;;;;;;4866167;29;20256;-79
2023/11/05 01:51:26;;;;;;;8.10;7.57;;;9.60;99.90;;;;;;4875389;29;20216;-79
2023/11/05 01:53:56;;;;;;;8.03;7.50;;;9.70;99.90;;;;;;4877724;29;20683;-79
2023/11/05 01:56:24;;;;;;;7.83;7.27;;;9.80;99.90;;;;;;4871541;29;20234;-79
2023/11/05 01:58:53;;;;;;;7.93;7.37;;;9.80;99.90;;;;;;4870177;29;20853;-79
2023/11/05 02:01:20;;;;;;;8.60;7.83;;;9.80;99.90;;;;;;4861849;29;20217;-79
2023/11/05 02:03:47;;;;;;;8.10;7.50;;;9.80;99.90;;;;;;4862054;29;20217;-79
2023/11/05 02:06:14;;;;;;;7.87;7.37;;;9.90;99.90;;;;;;4860848;29;20613;-79
2023/11/05 02:08:42;;;;;;;7.73;7.13;;;9.90;99.90;;;;;;4875065;29;20210;-79
2023/11/05 02:11:09;;;;;;;7.80;7.20;;;10.00;99.90;;;;;;4862130;29;20210;-78
2023/11/05 02:13:47;;;;;;;7.23;6.83;;;10.00;99.90;;;;;;4861810;29;20568;-79
2023/11/05 02:16:15;;;;;;;7.90;7.27;;;9.90;99.90;;;;;;4861171;29;20324;-79
2023/11/05 02:18:43;;;;;;;8.00;7.40;;;9.90;99.90;;;;;;4877341;29;20202;-79
2023/11/05 02:21:11;;;;;;;8.47;7.30;;;9.90;99.90;;;;;;4863312;29;20198;-79
2023/11/05 02:23:40;;;;;;;7.70;7.30;;;9.90;99.90;;;;;;4869982;29;20208;-78
2023/11/05 02:26:06;;;;;;;9.60;7.50;;;9.90;99.90;;;;;;4869145;29;20217;-79
2023/11/05 02:28:33;;;;;;;8.13;7.53;;;9.90;99.90;;;;;;4861959;29;20205;-79
2023/11/05 02:31:00;;;;;;;7.97;7.47;;;9.90;99.90;;;;;;4863273;29;20212;-78
2023/11/05 02:33:27;;;;;;;7.80;7.30;;;9.90;99.90;;;;;;4864806;29;20206;-79
2023/11/05 02:35:54;;;;;;;7.53;7.07;;;10.00;99.90;;;;;;4862393;29;20233;-79
2023/11/05 02:38:21;;;;;;;8.03;7.50;;;10.00;99.90;;;;;;4872211;29;20206;-79
2023/11/05 02:40:50;;;;;;;8.00;7.37;;;10.00;99.90;;;;;;4875460;29;20205;-79
2023/11/05 02:43:16;;;;;;;7.80;7.30;;;10.00;99.90;;;;;;4862869;29;20200;-79
2023/11/05 02:45:43;;;;;;;7.67;7.17;;;10.00;99.90;;;;;;4862502;29;20746;-79
2023/11/05 02:48:10;;;;;;;7.77;7.27;;;10.00;99.90;;;;;;4862953;29;20198;-79
2023/11/05 02:50:37;;;;;;;7.80;7.20;;;10.00;99.90;;;;;;4862011;29;20756;-78
2023/11/05 02:53:03;;;;;;;7.63;7.00;;;10.00;99.90;;;;;;4866788;29;20208;-79
2023/11/05 02:55:31;;;;;;;7.83;7.30;;;10.00;99.90;;;;;;4864960;29;20218;-79
2023/11/05 02:57:59;;;;;;;7.90;7.30;;;10.00;99.90;;;;;;4861194;29;20202;-79
2023/11/05 03:00:28;;;;;;;8.10;7.40;;;10.00;99.90;;;;;;4862190;29;20197;-79
2023/11/05 03:02:55;;;;;;;7.43;6.93;;;10.00;99.90;;;;;;4867669;29;20293;-79
2023/11/05 03:05:22;;;;;;;7.17;6.77;;;10.10;99.90;;;;;;4867132;29;20631;-79
2023/11/05 03:07:50;;;;;;;7.40;6.90;;;10.00;99.90;;;;;;4861077;29;20231;-79
2023/11/05 03:10:17;;;;;;;7.53;7.03;;;10.10;99.90;;;;;;4861659;29;20198;-79
2023/11/05 03:12:44;;;;;;;8.10;7.50;;;10.00;99.90;;;;;;4878521;29;20201;-79
2023/11/05 03:15:12;;;;;;;7.70;7.20;;;10.00;99.90;;;;;;4861350;29;20206;-79
2023/11/05 03:17:39;;;;;;;8.37;7.67;;;10.10;99.90;;;;;;4862978;29;20233;-79
2023/11/05 03:20:07;;;;;;;7.40;6.90;;;10.10;99.90;;;;;;4869590;29;20257;-79
2023/11/05 03:22:34;;;;;;;8.47;7.63;;;10.10;99.90;;;;;;4860341;29;20199;-79
2023/11/05 03:25:01;;;;;;;8.17;7.53;;;10.20;99.90;;;;;;4880588;29;20692;-79
2023/11/05 03:27:28;;;;;;;7.60;7.20;;;10.30;99.90;;;;;;4860855;29;20219;-78
2023/11/05 03:29:55;;;;;;;2.93;2.23;;;10.50;99.90;;;;;;4868906;29;20822;-79
2023/11/05 03:32:23;;;;;;;2.57;2.33;;;10.50;99.90;;;;;;4862758;29;20203;-79
2023/11/05 03:34:50;;;;;;;3.00;2.00;;;10.50;99.90;;;;;;4861992;29;20232;-79
2023/11/05 03:37:17;;;;;;;2.73;2.07;;;10.50;99.90;;;;;;4861090;29;20226;-79
2023/11/05 03:39:44;;;;;;;4.03;2.30;;;10.60;99.90;;;;;;4861302;29;20235;-78
2023/11/05 03:42:11;;;;;;;4.13;2.10;;;10.60;99.90;;;;;;4861132;29;20285;-78
2023/11/05 03:44:38;;;;;;;2.90;2.20;;;10.60;99.90;;;;;;4862762;29;20209;-78
2023/11/05 03:47:05;;;;;;;3.60;2.10;;;10.50;99.90;;;;;;4860229;29;20226;-79
2023/11/05 03:49:33;;;;;;;2.40;2.20;;;10.60;99.90;;;;;;4861878;29;20199;-78
2023/11/05 03:52:01;;;;;;;2.20;2.00;;;10.60;99.90;;;;;;4875675;29;20205;-81
2023/11/05 03:54:28;;;;;;;2.27;1.90;;;10.70;99.90;;;;;;4870078;29;20203;-78
2023/11/05 03:56:56;;;;;;;2.60;2.07;;;10.70;99.90;;;;;;4875878;29;20227;-78
2023/11/05 03:59:24;;;;;;;3.30;2.27;;;10.70;99.90;;;;;;4871306;29;20206;-78
2023/11/05 04:01:52;;;;;;;4.03;2.23;;;10.80;99.90;;;;;;4872028;29;20223;-78
2023/11/05 04:04:19;;;;;;;1.83;1.73;;;10.80;99.90;;;;;;4874731;29;20203;-77
2023/11/05 04:06:47;;;;;;;2.40;2.20;;;10.80;99.90;;;;;;4872319;29;20227;-77
2023/11/05 04:09:14;;;;;;;2.33;2.13;;;10.80;99.90;;;;;;4878057;29;20203;-78
2023/11/05 04:11:41;;;;;;;3.60;2.17;;;10.70;99.90;;;;;;4868972;29;20302;-78
2023/11/05 04:14:08;;;;;;;2.50;2.20;;;10.80;99.90;;;;;;4873556;29;20207;-78
2023/11/05 04:16:34;;;;;;;2.23;2.03;;;10.80;99.90;;;;;;4865003;29;20227;-78
2023/11/05 04:19:02;;;;;;;2.40;2.20;;;10.70;99.90;;;;;;4867108;29;20227;-78
2023/11/05 04:21:28;;;;;;;2.43;2.10;;;10.80;99.90;;;;;;4866028;29;20203;-78
2023/11/05 04:23:57;;;;;;;2.30;2.20;;;10.70;99.90;;;;;;4867738;29;20210;-78
2023/11/05 04:26:23;;;;;;;5.67;4.60;;;10.70;99.90;;;;;;4876953;29;20223;-78
2023/11/05 04:28:50;;;;;;;2.70;2.50;;;10.70;99.90;;;;;;4876188;29;20206;-78
2023/11/05 04:31:17;;;;;;;3.23;2.23;;;10.70;99.90;;;;;;4867432;29;20203;-79
2023/11/05 04:33:44;;;;;;;3.27;2.80;;;10.80;99.90;;;;;;4866168;29;20251;-78
2023/11/05 04:36:11;;;;;;;5.17;4.87;;;10.80;99.90;;;;;;4876749;29;20336;-77
2023/11/05 04:38:38;;;;;;;5.07;2.90;;;10.80;99.90;;;;;;4876479;29;20211;-78
2023/11/05 04:41:06;;;;;;;2.83;2.30;;;10.90;99.90;;;;;;4882449;29;20197;-78
2023/11/05 04:43:33;;;;;;;6.87;6.43;;;10.90;99.90;;;;;;4882925;29;20207;-78
2023/11/05 04:46:00;;;;;;;3.10;2.17;;;11.00;99.90;;;;;;4880658;29;20216;-78
2023/11/05 04:48:27;;;;;;;4.67;2.83;;;11.00;99.90;;;;;;4879256;29;20206;-78
2023/11/05 04:50:54;;;;;;;6.37;5.97;;;11.00;99.90;;;;;;4875260;29;20689;-77
2023/11/05 04:53:21;;;;;;;6.70;6.30;;;10.90;99.90;;;;;;4868149;29;20222;-78
2023/11/05 04:55:48;;;;;;;5.73;5.43;;;11.00;99.90;;;;;;4875028;29;20222;-78
2023/11/05 04:58:16;;;;;;;7.13;6.63;;;11.00;99.90;;;;;;4872104;29;20203;-79
2023/11/05 05:00:43;;;;;;;3.70;3.50;;;11.00;99.90;;;;;;4865596;29;20204;-78
2023/11/05 05:03:10;;;;;;;7.07;6.57;;;11.00;99.90;;;;;;4876863;29;20201;-78
2023/11/05 05:05:36;;;;;;;7.53;7.03;;;10.90;99.90;;;;;;4870110;29;20268;-78
2023/11/05 05:08:04;;;;;;;7.60;7.10;;;10.90;99.90;;;;;;4872225;29;20579;-78
2023/11/05 05:10:30;;;;;;;7.63;7.03;;;11.00;99.90;;;;;;4872708;29;20596;-78
2023/11/05 05:12:57;;;;;;;7.80;7.30;;;10.90;99.90;;;;;;4877633;29;20203;-77
2023/11/05 05:15:25;;;;;;;7.50;7.10;;;10.90;99.90;;;;;;4870091;29;20207;-78
2023/11/05 05:17:53;;;;;;;7.60;7.10;;;10.90;99.90;;;;;;4889509;29;20230;-79
2023/11/05 05:20:20;;;;;;;7.77;7.17;;;10.90;99.90;;;;;;4877850;29;20209;-78
2023/11/05 05:22:47;;;;;;;8.00;7.40;;;10.90;99.90;;;;;;4871760;29;20228;-77
2023/11/05 05:25:14;;;;;;;7.70;7.20;;;10.90;99.90;;;;;;4872755;29;20212;-84
2023/11/05 05:27:40;;;;;;;7.40;7.00;;;10.90;99.90;;;;;;4874924;29;20250;-82
2023/11/05 05:30:09;;;;;;;7.80;7.20;;;10.80;99.90;;;;;;4872335;29;20206;-82
2023/11/05 05:32:37;;;;;;;7.40;7.00;;;10.70;99.90;;;;;;4863813;29;20207;-78
2023/11/05 05:35:04;;;;;;;7.23;6.83;;;10.80;99.90;;;;;;4864302;29;20203;-77
2023/11/05 05:37:31;;;;;;;7.40;6.90;;;10.80;99.90;;;;;;4863543;29;20259;-77
2023/11/05 05:39:58;;;;;;;7.47;6.97;;;10.70;99.90;;;;;;4868121;29;20214;-77
2023/11/05 05:42:25;;;;;;;7.10;6.70;;;10.70;99.90;;;;;;4865860;29;20246;-77
2023/11/05 05:44:52;;;;;;;7.17;6.77;;;10.70;99.90;;;;;;4865265;29;20208;-78
2023/11/05 05:47:19;;;;;;;7.30;6.80;;;10.60;99.90;;;;;;4887336;29;20218;-78
2023/11/05 05:49:47;;;;;;;7.13;6.73;;;10.60;99.90;;;;;;4871134;29;20200;-78
2023/11/05 05:52:14;;;;;;;7.47;7.00;;;10.50;99.90;;;;;;4874947;29;20194;-78
2023/11/05 05:54:41;;;;;;;8.77;8.17;;;10.50;99.90;;;;;;4872010;29;20278;-78
2023/11/05 05:57:08;;;;;;;7.97;7.47;;;10.40;99.90;;;;;;4868544;29;20230;-77
2023/11/05 05:59:34;;;;;;;7.40;7.00;;;10.40;99.90;;;;;;4864998;29;20227;-78
2023/11/05 06:02:02;;;;;;;7.70;7.30;;;10.40;99.90;;;;;;4873794;29;20219;-77
2023/11/05 06:04:29;;;;;;;7.33;6.93;;;10.40;99.90;;;;;;4871228;29;20210;-77
2023/11/05 06:06:57;;;;;;;7.27;6.87;;;10.40;99.90;;;;;;4864509;29;20231;-78
2023/11/05 06:09:24;;;;;;;7.60;7.20;;;10.40;99.90;;;;;;4863623;29;20215;-78
2023/11/05 06:11:51;;;;;;;7.30;6.90;;;10.40;99.90;;;;;;4863870;29;20657;-78
2023/11/05 06:14:18;;;;;;;7.20;6.80;;;10.40;99.90;;;;;;4862906;29;20233;-77
2023/11/05 06:16:45;;;;;;;7.50;7.10;;;10.40;99.90;;;;;;4870259;29;20222;-77
2023/11/05 06:19:12;;;;;;;7.30;6.90;;;10.40;99.90;;;;;;4869378;29;20578;-77
2023/11/05 06:21:44;;;;;;;7.40;7.00;;;10.40;99.90;;;;;;4866186;29;20206;-78
2023/11/05 06:24:12;;;;;;;7.43;7.03;;;10.40;99.90;;;;;;4873941;29;20206;-78
2023/11/05 06:26:40;;;;;;;7.33;6.83;;;10.50;99.90;;;;;;4869903;29;20213;-78
2023/11/05 06:29:07;;;;;;;7.60;7.20;;;10.50;99.90;;;;;;4864982;29;20215;-78
2023/11/05 06:31:34;;;;;;;8.00;7.60;;;10.50;99.90;;;;;;4863033;29;20263;-78
2023/11/05 06:34:01;;;;;;;7.80;7.40;;;10.50;99.90;;;;;;4865212;29;20212;-78
2023/11/05 06:36:27;;;;;;;7.80;7.40;;;10.50;99.90;;;;;;4866896;29;20284;-77
2023/11/05 06:38:54;;;;;;;7.30;6.90;;;10.50;99.90;;;;;;4862920;29;20302;-78
2023/11/05 06:41:22;;;;;;;7.40;7.00;;;10.50;99.90;;;;;;4865542;29;20236;-77
2023/11/05 06:43:49;;;;;;;7.10;6.80;;;10.50;99.90;;;;;;4867012;29;20218;-78
2023/11/05 06:46:16;;;;;;;7.50;7.00;;;10.60;99.90;;;;;;4864427;29;20225;-77
2023/11/05 06:48:43;;;;;;;7.50;7.10;;;10.60;99.90;;;;;;4863796;29;20666;-78
2023/11/05 06:51:10;;;;;;;7.30;6.90;;;10.70;99.90;;;;;;4863550;29;20211;-78
2023/11/05 06:53:37;;;;;;;7.47;7.07;;;10.80;99.90;;;;;;4862603;29;20209;-78
2023/11/05 06:56:04;;;;;;;7.67;7.27;;;10.80;99.90;;;;;;4863080;29;20227;-82
2023/11/05 06:58:32;;;;;;;7.40;7.00;;;10.80;99.90;;;;;;4876336;29;20323;-82
2023/11/05 07:00:59;;;;;;;7.30;6.90;;;10.80;99.90;;;;;;4861232;29;20745;-82
2023/11/05 07:03:26;;;;;;;7.60;7.10;;;10.80;99.90;;;;;;4861028;29;20648;-78
2023/11/05 07:05:53;;;;;;;7.97;7.57;;;10.80;99.90;;;;;;4870702;29;20813;-80
2023/11/05 07:08:20;;;;;;;8.80;8.30;;;10.90;99.90;;;;;;4874742;29;20212;-82
2023/11/05 07:10:46;;;;;;;8.80;8.30;;;10.90;99.90;;;;;;4867748;29;20742;-83
2023/11/05 07:13:13;;;;;;;7.97;7.57;;;10.90;99.90;;;;;;4861877;29;20740;-83
2023/11/05 07:15:42;;;;;;;8.40;7.90;;;10.90;99.90;;;;;;4861764;29;20204;-87
2023/11/05 07:18:08;;;;;;;7.40;7.00;;;11.00;99.90;;;;;;4867106;29;20227;-78
2023/11/05 07:20:36;;;;;;;7.07;6.77;;;10.90;99.90;;;;;;4865449;29;20674;-78
2023/11/05 07:23:03;;;;;;;7.30;6.90;;;11.00;99.90;;;;;;4880096;29;20207;-78
2023/11/05 07:25:30;;;;;;;7.63;7.23;;;11.00;99.90;;;;;;4862708;29;20224;-77
2023/11/05 07:27:58;;;;;;;7.70;7.30;;;11.00;99.90;;;;;;4871346;29;20734;-78
2023/11/05 07:30:25;;;;;;;7.80;7.40;;;11.00;99.90;;;;;;4880159;29;20672;-78
2023/11/05 07:32:53;;;;;;;7.53;7.13;;;11.00;99.90;;;;;;4881028;29;20203;-79
2023/11/05 07:35:20;;;;;;;7.90;7.50;;;11.10;99.90;;;;;;4872913;29;20224;-78
2023/11/05 07:37:47;;;;;;;7.30;6.90;;;11.10;99.90;;;;;;4861024;29;20308;-80
2023/11/05 07:40:14;;;;;;;7.40;7.00;;;11.10;99.90;;;;;;4875345;29;20272;-82
2023/11/05 07:42:42;;;;;;;7.50;7.10;;;11.10;99.90;;;;;;4878418;29;20201;-81
2023/11/05 07:45:10;;;;;;;7.40;7.00;;;11.10;99.90;;;;;;4878428;29;20300;-81
2023/11/05 07:47:39;;;;;;;7.50;7.10;;;11.30;99.90;;;;;;4864160;29;20770;-81
2023/11/05 07:50:11;;;;;;;7.23;6.83;;;11.50;99.90;;;;;;4870583;29;20231;-82
2023/11/05 07:52:40;;;;;;;7.70;7.30;;;11.60;99.90;;;;;;4877338;29;20209;-81
2023/11/05 07:55:08;;;;;;;8.10;7.50;;;11.90;99.90;;;;;;4863379;29;20210;-80
2023/11/05 07:57:35;;;;;;;7.90;7.50;;;12.00;99.90;;;;;;4870796;29;20308;-81
2023/11/05 08:00:03;;;;;;;7.83;7.33;;;12.10;99.90;;;;;;4871028;29;20223;-83
2023/11/05 08:02:38;;;;;;;7.50;7.10;;;12.20;99.90;;;;;;4866007;29;20206;-82
2023/11/05 08:05:06;;;;;;;8.00;7.57;;;12.10;99.90;;;;;;4874989;29;20693;-82
2023/11/05 08:07:34;;;;;;;7.50;7.10;;;12.10;99.90;;;;;;4869170;29;20232;-80
2023/11/05 08:10:02;;;;;;;7.70;7.20;;;12.10;99.90;;;;;;4883021;29;20197;-82
2023/11/05 08:12:28;;;;;;;7.50;7.10;;;12.00;99.90;;;;;;4865457;29;20205;-77
2023/11/05 08:14:55;;;;;;;7.50;7.10;;;11.90;99.90;;;;;;4885898;29;20218;-78
2023/11/05 08:17:22;;;;;;;7.60;7.10;;;11.90;99.90;;;;;;4878009;29;20243;-78
2023/11/05 08:19:49;;;;;;;7.37;6.97;;;11.80;99.90;;;;;;4880673;29;20224;-78
2023/11/05 08:22:16;;;;;;;7.80;7.30;;;11.80;99.90;;;;;;4876637;29;20211;-78
2023/11/05 08:24:44;;;;;;;7.87;7.37;;;11.90;99.90;;;;;;4870440;29;20210;-78
2023/11/05 08:27:11;;;;;;;8.00;7.50;;;12.10;99.90;;;;;;4866108;29;20214;-79
2023/11/05 08:29:40;;;;;;;7.90;7.50;;;12.20;99.90;;;;;;4871827;29;20684;-78
2023/11/05 08:32:07;;;;;;;8.13;7.73;;;12.30;99.90;;;;;;4873622;29;20206;-79
2023/11/05 08:34:34;;;;;;;7.70;7.30;;;12.70;99.90;;;;;;4878837;29;20233;-77
2023/11/05 08:37:01;;;;;;;8.00;7.50;;;13.00;99.90;;;;;;4875199;29;20316;-78
2023/11/05 08:39:30;;;;;;;7.87;7.47;;;13.10;99.90;;;;;;4873347;29;20199;-78
2023/11/05 08:41:58;;;;;;;8.20;7.70;;;13.20;99.90;;;;;;4867509;29;20217;-78
2023/11/05 08:44:25;;;;;;;8.30;7.90;;;13.30;99.90;;;;;;4875080;29;20680;-79
2023/11/05 08:46:52;;;;;;;8.23;7.83;;;13.40;99.90;;;;;;4873662;29;20764;-79
2023/11/05 08:49:20;;;;;;;8.50;8.10;;;13.70;99.90;;;;;;4878603;29;20247;-78
2023/11/05 08:51:46;;;;;;;8.27;7.80;;;14.10;99.90;;;;;;4869519;29;20230;-79
2023/11/05 08:54:13;;;;;;;8.73;8.13;;;14.40;99.90;;;;;;4876255;29;20206;-78
2023/11/05 08:56:40;;;;;;;8.43;7.93;;;14.70;99.90;;;;;;4874843;29;20303;-78
2023/11/05 08:59:08;;;;;;;8.60;8.10;;;15.00;99.90;;;;;;4872368;29;20737;-78
2023/11/05 09:01:35;;;;;;;8.57;8.07;;;15.20;99.90;;;;;;4865071;29;20226;-82
2023/11/05 09:04:04;;;;;;;8.70;8.20;;;15.10;99.90;;;;;;4870399;29;20201;-84
2023/11/05 09:06:31;;;;;;;8.90;8.33;;;15.10;99.90;;;;;;4864631;29;20233;-83
2023/11/05 09:08:58;;;;;;;8.67;8.17;;;15.20;99.90;;;;;;4878750;29;20230;-84
2023/11/05 09:11:25;;;;;;;8.70;8.20;;;15.30;99.90;;;;;;4872753;29;20748;-82
2023/11/05 09:13:52;;;;;;;8.60;8.10;;;15.20;99.90;;;;;;4873046;29;20258;-82
2023/11/05 09:16:20;;;;;;;9.00;8.50;;;15.30;99.90;;;;;;4869680;29;20229;-78
2023/11/05 09:18:53;;;;;;;9.20;8.70;;;15.30;99.90;;;;;;4876634;29;20276;-81
2023/11/05 09:21:20;;;;;;;9.43;8.83;;;15.10;99.90;;;;;;4873547;29;20754;-77
2023/11/05 09:23:47;;;;;;;8.47;8.03;;;15.10;99.90;;;;;;4874477;29;20205;-78
2023/11/05 09:26:18;;;;;;;9.37;8.87;;;15.00;99.90;;;;;;4864083;29;20230;-80
2023/11/05 09:28:45;;;;;;;9.00;8.40;;;14.90;99.90;;;;;;4869681;29;20232;-77
2023/11/05 09:31:12;;;;;;;8.90;8.30;;;14.90;99.90;;;;;;4872870;29;20259;-77
2023/11/05 09:33:41;;;;;;;9.03;8.53;;;14.90;99.90;;;;;;4871394;29;20212;-77
2023/11/05 09:36:08;;;;;;;9.00;8.47;;;14.90;99.90;;;;;;4883508;29;20220;-76
2023/11/05 09:38:35;;;;;;;8.87;8.37;;;14.90;99.90;;;;;;4875599;29;20220;-77
2023/11/05 09:41:02;;;;;;;8.97;8.47;;;15.00;99.90;;;;;;4867397;29;20221;-76
2023/11/05 09:43:29;;;;;;;8.40;7.90;;;15.00;99.90;;;;;;4867175;29;20236;-77
2023/11/05 09:45:57;;;;;;;8.10;7.70;;;15.10;99.90;;;;;;4875342;29;20299;-77
2023/11/05 09:48:24;;;;;;;8.13;7.73;;;15.20;99.90;;;;;;4876198;29;20200;-77
2023/11/05 09:50:53;;;;;;;8.63;8.13;;;15.40;99.90;;;;;;4870554;29;20206;-77
2023/11/05 09:53:20;;;;;;;6.80;6.30;;;15.60;99.90;;;;;;4872235;29;20197;-77
2023/11/05 09:55:48;;;;;;;4.27;4.00;;;15.50;99.90;;;;;;4874084;29;20227;-77
2023/11/05 09:58:16;;;;;;;3.70;3.50;;;15.50;99.90;;;;;;4872682;29;20231;-78
2023/11/05 10:00:43;;;;;;;7.80;7.40;;;15.60;99.90;;;;;;4869549;29;20229;-77
2023/11/05 10:03:12;;;;;;;7.80;7.40;;;15.40;99.90;;;;;;4884410;29;20212;-77
2023/11/05 10:05:40;;;;;;;8.37;7.70;;;15.40;99.90;;;;;;4870168;29;20213;-77
2023/11/05 10:08:10;;;;;;;7.30;6.90;;;15.60;99.90;;;;;;4870894;29;20679;-77
2023/11/05 10:10:41;;;;;;;5.53;5.23;;;15.40;99.90;;;;;;4872107;29;20209;-77
2023/11/05 10:13:08;;;;;;;8.67;8.03;;;15.10;99.90;;;;;;4860661;29;20637;-77
2023/11/05 10:15:36;;;;;;;8.30;7.80;;;14.80;99.90;;;;;;4863748;29;20223;-77
2023/11/05 10:18:04;;;;;;;8.40;7.90;;;14.50;99.90;;;;;;4862791;29;20710;-79
2023/11/05 10:20:31;;;;;;;8.53;7.93;;;14.30;99.90;;;;;;4863111;29;20207;-77
2023/11/05 10:23:03;;;;;;;8.60;8.10;;;14.10;99.90;;;;;;4862944;29;20209;-77
2023/11/05 10:25:31;;;;;;;8.60;8.10;;;13.90;99.90;;;;;;4863701;29;20218;-77
2023/11/05 10:27:58;;;;;;;8.97;8.37;;;13.70;99.90;;;;;;4861805;29;20680;-77
2023/11/05 10:30:26;;;;;;;9.30;8.80;;;13.70;99.90;;;;;;4865896;29;20205;-77
2023/11/05 10:32:54;;;;;;;9.10;8.50;;;13.70;99.90;;;;;;4862721;29;20235;-78
2023/11/05 10:35:22;;;;;;;8.63;7.93;;;13.70;99.90;;;;;;4863515;29;20205;-77
2023/11/05 10:37:49;;;;;;;8.70;8.20;;;13.80;99.90;;;;;;4866151;29;20239;-77
2023/11/05 10:40:17;;;;;;;8.50;8.00;;;13.90;99.90;;;;;;4867114;29;20200;-78
2023/11/05 10:42:46;;;;;;;8.43;7.93;;;14.00;99.90;;;;;;4872656;29;20202;-77
2023/11/05 10:45:14;;;;;;;8.13;7.63;;;14.10;99.90;;;;;;4862742;29;20208;-77
2023/11/05 10:47:41;;;;;;;8.50;8.00;;;14.10;99.90;;;;;;4864250;29;20727;-77
2023/11/05 10:50:13;;;;;;;8.70;8.20;;;14.10;99.90;;;;;;4860760;29;20278;-77
2023/11/05 10:52:42;;;;;;;8.50;7.90;;;13.90;99.90;;;;;;4863105;29;20244;-77
2023/11/05 10:55:11;;;;;;;8.40;7.90;;;13.90;99.90;;;;;;4861046;29;20240;-77
2023/11/05 10:57:42;;;;;;;7.93;7.43;;;13.90;99.90;;;;;;4870571;29;20223;-77
2023/11/05 11:00:57;;;;;;;7.80;7.40;;;13.80;99.90;;;;;;4862787;29;20225;-77
2023/11/05 11:03:25;;;;;;;7.60;7.20;;;13.60;99.90;;;;;;4863867;29;20200;-77
2023/11/05 11:05:57;;;;;;;7.60;7.20;;;13.50;99.90;;;;;;4867778;29;20226;-77
2023/11/05 11:08:27;;;;;;;7.60;7.20;;;13.40;99.90;;;;;;4869916;29;20671;-77
2023/11/05 11:11:08;;;;;;;8.50;7.70;;;13.30;99.90;;;;;;4861316;29;20285;-77
2023/11/05 11:13:38;;;;;;;8.37;7.87;;;13.10;99.90;;;;;;4860450;29;20216;-77
2023/11/05 11:16:08;;;;;;;8.83;8.33;;;13.00;99.90;;;;;;4871024;29;20658;-76
2023/11/05 11:18:37;;;;;;;8.50;7.97;;;13.00;99.90;;;;;;4863930;29;20217;-76
2023/11/05 11:21:08;;;;;;;8.40;7.90;;;13.00;99.90;;;;;;4876990;29;20205;-77
2023/11/05 11:23:35;;;;;;;8.80;8.17;;;13.10;99.90;;;;;;4861320;29;20190;-77
2023/11/05 11:26:04;;;;;;;9.00;8.33;;;13.40;99.90;;;;;;4860035;29;20233;-77
2023/11/05 11:28:32;;;;;;;8.60;8.10;;;13.60;99.90;;;;;;4859797;29;20213;-77
2023/11/05 11:31:00;;;;;;;8.67;8.17;;;13.80;99.90;;;;;;4860700;29;20204;-77
2023/11/05 11:33:29;;;;;;;8.67;8.20;;;13.90;99.90;;;;;;4864554;29;20207;-76
2023/11/05 11:35:56;;;;;;;8.70;8.20;;;14.00;99.90;;;;;;4868597;29;20225;-77
2023/11/05 11:38:23;;;;;;;8.30;7.80;;;14.10;99.90;;;;;;4865755;29;20226;-77
2023/11/05 11:40:56;;;;;;;8.70;8.20;;;14.10;99.90;;;;;;4864531;29;20225;-77
2023/11/05 11:43:24;;;;;;;8.60;8.10;;;14.20;99.90;;;;;;4867529;29;20278;-77
2023/11/05 11:45:52;;;;;;;8.50;8.00;;;14.30;99.90;;;;;;4861629;29;20234;-77
2023/11/05 11:48:22;;;;;;;7.70;7.30;;;14.30;99.90;;;;;;4861965;29;20259;-78
2023/11/05 11:50:52;;;;;;;8.50;8.00;;;14.40;99.90;;;;;;4871223;29;20219;-77
2023/11/05 11:53:26;;;;;;;7.83;7.43;;;14.50;99.90;;;;;;4867247;29;20650;-78
2023/11/05 11:55:54;;;;;;;8.00;7.50;;;14.50;99.90;;;;;;4868471;29;20760;-77
2023/11/05 11:58:21;;;;;;;7.93;7.53;;;14.60;99.90;;;;;;4865784;29;20235;-77
2023/11/05 12:00:48;;;;;;;7.93;7.50;;;14.60;99.90;;;;;;4885810;29;20210;-79
2023/11/05 12:03:21;;;;;;;8.20;7.70;;;14.50;99.90;;;;;;4870156;29;20514;-80
2023/11/05 12:05:48;;;;;;;8.03;7.53;;;14.40;99.90;;;;;;4863299;29;20261;-81
2023/11/05 12:08:35;;;;;;;7.87;7.40;;;14.00;99.90;;;;;;4874896;29;20268;-82
2023/11/05 12:11:19;;;;;;;7.53;7.13;;;13.90;99.90;;;;;;4872794;29;20229;-80
2023/11/05 12:13:55;;;;;;;7.20;6.80;;;13.90;99.90;;;;;;4878660;29;20222;-79
2023/11/05 12:16:25;;;;;;;7.70;7.30;;;14.00;99.90;;;;;;4867290;29;20223;-81
2023/11/05 12:18:55;;;;;;;7.50;7.10;;;14.00;99.90;;;;;;4876513;29;20245;-80
2023/11/05 12:21:29;;;;;;;8.07;7.57;;;13.90;99.90;;;;;;4872012;29;20240;-80
2023/11/05 12:23:57;;;;;;;8.00;7.50;;;13.80;99.90;;;;;;4868637;29;20260;-80
2023/11/05 12:26:30;;;;;;;8.33;7.83;;;13.70;99.90;;;;;;4874066;29;20755;-80
2023/11/05 12:29:35;;;;;;;8.40;7.90;;;13.70;99.90;;;;;;4864204;29;20272;-79
2023/11/05 12:32:12;;;;;;;8.00;7.50;;;13.60;99.90;;;;;;4879039;29;20274;-79
2023/11/05 12:34:41;;;;;;;8.07;7.50;;;13.40;99.90;;;;;;4874081;29;20205;-78
2023/11/05 12:37:08;;;;;;;8.70;8.20;;;13.30;99.90;;;;;;4871020;29;20595;-79
2023/11/05 12:39:36;;;;;;;8.47;7.97;;;13.20;99.90;;;;;;4868326;29;20262;-80
2023/11/05 12:42:04;;;;;;;7.90;7.30;;;13.20;99.90;;;;;;4871878;29;20675;-79
2023/11/05 12:44:36;;;;;;;7.90;7.40;;;13.10;99.90;;;;;;4866277;29;20281;-82
2023/11/05 12:47:04;;;;;;;8.00;7.60;;;13.00;99.90;;;;;;4865886;29;20222;-80
2023/11/05 12:49:30;;;;;;;7.67;7.27;;;12.90;99.90;;;;;;4871058;29;20218;-84
2023/11/05 12:51:57;;;;;;;8.00;7.60;;;12.70;99.90;;;;;;4870198;29;20205;-83